sensor_id;sensor_type;location;lat;lon;timestamp;P1;durP1;ratioP1;P2;durP2;ratioP2
49015;SDS011;34830;44.064;12.566;2023-05-31T00:01:30;29.40;;;6.78;;
49015;SDS011;34830;44.064;12.566;2023-05-31T00:03:57;8.38;;;4.78;;
49015;SDS011;34830;44.064;12.566;2023-05-31T00:06:23;6.40;;;4.65;;
49015;SDS011;34830;44.064;12.566;2023-05-31T00:08:49;7.10;;;4.55;;
49015;SDS011;34830;44.064;12.566;2023-05-31T00:11:15;9.50;;;4.88;;
49015;SDS011;34830;44.064;12.566;2023-05-31T00:13:41;8.82;;;5.63;;
49015;SDS011;34830;44.064;12.566;2023-05-31T00:16:07;9.57;;;5.00;;
49015;SDS011;34830;44.064;12.566;2023-05-31T00:18:34;11.40;;;5.45;;
49015;SDS011;34830;44.064;12.566;2023-05-31T00:21:00;7.68;;;5.35;;
49015;SDS011;34830;44.064;12.566;2023-05-31T00:23:26;10.00;;;4.55;;
49015;SDS011;34830;44.064;12.566;2023-05-31T00:25:52;7.90;;;4.72;;
49015;SDS011;34830;44.064;12.566;2023-05-31T00:28:18;10.35;;;4.78;;
49015;SDS011;34830;44.064;12.566;2023-05-31T00:30:44;11.27;;;5.00;;
49015;SDS011;34830;44.064;12.566;2023-05-31T00:33:11;60.45;;;9.38;;
49015;SDS011;34830;44.064;12.566;2023-05-31T00:35:37;18.50;;;7.55;;
49015;SDS011;34830;44.064;12.566;2023-05-31T00:38:04;10.40;;;4.82;;
49015;SDS011;34830;44.064;12.566;2023-05-31T00:40:31;17.10;;;5.68;;
49015;SDS011;34830;44.064;12.566;2023-05-31T00:42:58;9.60;;;4.80;;
49015;SDS011;34830;44.064;12.566;2023-05-31T00:45:24;7.38;;;4.60;;
49015;SDS011;34830;44.064;12.566;2023-05-31T00:47:50;12.05;;;5.10;;
49015;SDS011;34830;44.064;12.566;2023-05-31T00:50:16;15.90;;;5.70;;
49015;SDS011;34830;44.064;12.566;2023-05-31T00:52:43;23.38;;;6.07;;
49015;SDS011;34830;44.064;12.566;2023-05-31T00:55:10;14.38;;;4.97;;
49015;SDS011;34830;44.064;12.566;2023-05-31T00:57:37;7.45;;;4.75;;
49015;SDS011;34830;44.064;12.566;2023-05-31T01:00:04;9.23;;;4.82;;
49015;SDS011;34830;44.064;12.566;2023-05-31T01:02:30;8.57;;;5.43;;
49015;SDS011;34830;44.064;12.566;2023-05-31T01:04:58;14.65;;;5.05;;
49015;SDS011;34830;44.064;12.566;2023-05-31T01:07:24;9.10;;;4.80;;
49015;SDS011;34830;44.064;12.566;2023-05-31T01:09:51;7.00;;;4.40;;
49015;SDS011;34830;44.064;12.566;2023-05-31T01:15:20;10.25;;;5.22;;
49015;SDS011;34830;44.064;12.566;2023-05-31T01:20:58;8.82;;;4.55;;
49015;SDS011;34830;44.064;12.566;2023-05-31T01:29:04;9.85;;;4.75;;
49015;SDS011;34830;44.064;12.566;2023-05-31T01:31:31;9.50;;;4.90;;
49015;SDS011;34830;44.064;12.566;2023-05-31T01:34:01;9.02;;;4.70;;
49015;SDS011;34830;44.064;12.566;2023-05-31T01:36:28;9.80;;;5.13;;
49015;SDS011;34830;44.064;12.566;2023-05-31T01:38:54;9.02;;;4.55;;
49015;SDS011;34830;44.064;12.566;2023-05-31T01:41:20;8.15;;;4.45;;
49015;SDS011;34830;44.064;12.566;2023-05-31T01:43:46;7.38;;;4.57;;
49015;SDS011;34830;44.064;12.566;2023-05-31T01:46:14;11.63;;;5.40;;
49015;SDS011;34830;44.064;12.566;2023-05-31T01:48:40;9.15;;;5.25;;
49015;SDS011;34830;44.064;12.566;2023-05-31T01:51:08;9.43;;;5.15;;
49015;SDS011;34830;44.064;12.566;2023-05-31T01:53:35;8.20;;;5.25;;
49015;SDS011;34830;44.064;12.566;2023-05-31T01:56:02;9.45;;;5.10;;
49015;SDS011;34830;44.064;12.566;2023-05-31T01:58:29;8.57;;;5.40;;
49015;SDS011;34830;44.064;12.566;2023-05-31T02:00:57;7.28;;;5.25;;
49015;SDS011;34830;44.064;12.566;2023-05-31T02:03:24;9.18;;;4.97;;
49015;SDS011;34830;44.064;12.566;2023-05-31T02:05:58;9.02;;;4.47;;
49015;SDS011;34830;44.064;12.566;2023-05-31T02:08:25;11.35;;;5.60;;
49015;SDS011;34830;44.064;12.566;2023-05-31T02:10:52;8.20;;;5.22;;
49015;SDS011;34830;44.064;12.566;2023-05-31T02:13:20;8.95;;;4.97;;
49015;SDS011;34830;44.064;12.566;2023-05-31T02:15:48;8.32;;;4.43;;
49015;SDS011;34830;44.064;12.566;2023-05-31T02:18:14;12.00;;;5.28;;
49015;SDS011;34830;44.064;12.566;2023-05-31T02:20:44;9.07;;;5.75;;
49015;SDS011;34830;44.064;12.566;2023-05-31T02:23:16;11.07;;;4.68;;
49015;SDS011;34830;44.064;12.566;2023-05-31T02:25:46;9.02;;;5.05;;
49015;SDS011;34830;44.064;12.566;2023-05-31T02:28:13;10.02;;;5.05;;
49015;SDS011;34830;44.064;12.566;2023-05-31T02:30:40;7.57;;;4.65;;
49015;SDS011;34830;44.064;12.566;2023-05-31T02:33:08;11.35;;;4.85;;
49015;SDS011;34830;44.064;12.566;2023-05-31T02:35:34;7.68;;;4.95;;
49015;SDS011;34830;44.064;12.566;2023-05-31T02:38:00;10.88;;;4.95;;
49015;SDS011;34830;44.064;12.566;2023-05-31T02:40:26;7.47;;;4.88;;
49015;SDS011;34830;44.064;12.566;2023-05-31T02:42:53;12.07;;;5.78;;
49015;SDS011;34830;44.064;12.566;2023-05-31T02:45:19;6.68;;;4.18;;
49015;SDS011;34830;44.064;12.566;2023-05-31T02:47:46;8.50;;;4.60;;
49015;SDS011;34830;44.064;12.566;2023-05-31T02:50:13;9.93;;;4.82;;
49015;SDS011;34830;44.064;12.566;2023-05-31T02:52:52;10.05;;;5.13;;
49015;SDS011;34830;44.064;12.566;2023-05-31T02:55:36;9.38;;;4.78;;
49015;SDS011;34830;44.064;12.566;2023-05-31T02:58:35;11.38;;;4.78;;
49015;SDS011;34830;44.064;12.566;2023-05-31T03:01:24;6.97;;;4.50;;
49015;SDS011;34830;44.064;12.566;2023-05-31T03:04:10;8.55;;;4.95;;
49015;SDS011;34830;44.064;12.566;2023-05-31T03:06:37;8.60;;;5.22;;
49015;SDS011;34830;44.064;12.566;2023-05-31T03:09:06;9.73;;;4.97;;
49015;SDS011;34830;44.064;12.566;2023-05-31T03:11:34;9.80;;;5.35;;
49015;SDS011;34830;44.064;12.566;2023-05-31T03:14:00;10.13;;;5.72;;
49015;SDS011;34830;44.064;12.566;2023-05-31T03:16:39;10.13;;;5.00;;
49015;SDS011;34830;44.064;12.566;2023-05-31T03:19:05;7.68;;;4.82;;
49015;SDS011;34830;44.064;12.566;2023-05-31T03:21:32;8.02;;;5.43;;
49015;SDS011;34830;44.064;12.566;2023-05-31T03:23:58;11.48;;;6.03;;
49015;SDS011;34830;44.064;12.566;2023-05-31T03:26:24;11.32;;;5.50;;
49015;SDS011;34830;44.064;12.566;2023-05-31T03:28:50;9.35;;;5.90;;
49015;SDS011;34830;44.064;12.566;2023-05-31T03:31:16;10.18;;;5.10;;
49015;SDS011;34830;44.064;12.566;2023-05-31T03:33:42;8.88;;;5.80;;
49015;SDS011;34830;44.064;12.566;2023-05-31T03:36:09;13.35;;;6.88;;
49015;SDS011;34830;44.064;12.566;2023-05-31T03:38:35;11.40;;;6.82;;
49015;SDS011;34830;44.064;12.566;2023-05-31T03:41:01;12.55;;;6.35;;
49015;SDS011;34830;44.064;12.566;2023-05-31T03:43:27;12.50;;;8.10;;
49015;SDS011;34830;44.064;12.566;2023-05-31T03:45:53;11.07;;;6.18;;
49015;SDS011;34830;44.064;12.566;2023-05-31T03:48:20;13.43;;;6.80;;
49015;SDS011;34830;44.064;12.566;2023-05-31T03:50:46;15.15;;;6.00;;
49015;SDS011;34830;44.064;12.566;2023-05-31T03:53:13;12.35;;;6.28;;
49015;SDS011;34830;44.064;12.566;2023-05-31T03:55:39;12.82;;;6.85;;
49015;SDS011;34830;44.064;12.566;2023-05-31T03:58:05;10.95;;;7.28;;
49015;SDS011;34830;44.064;12.566;2023-05-31T04:00:34;13.73;;;7.82;;
49015;SDS011;34830;44.064;12.566;2023-05-31T04:03:01;11.00;;;5.88;;
49015;SDS011;34830;44.064;12.566;2023-05-31T04:05:28;16.02;;;7.05;;
49015;SDS011;34830;44.064;12.566;2023-05-31T04:07:55;20.25;;;6.93;;
49015;SDS011;34830;44.064;12.566;2023-05-31T04:10:21;12.80;;;5.93;;
49015;SDS011;34830;44.064;12.566;2023-05-31T04:12:47;16.42;;;6.13;;
49015;SDS011;34830;44.064;12.566;2023-05-31T04:15:13;17.90;;;6.82;;
49015;SDS011;34830;44.064;12.566;2023-05-31T04:17:39;11.57;;;6.20;;
49015;SDS011;34830;44.064;12.566;2023-05-31T04:20:06;16.17;;;6.20;;
49015;SDS011;34830;44.064;12.566;2023-05-31T04:22:35;9.13;;;5.93;;
49015;SDS011;34830;44.064;12.566;2023-05-31T04:25:01;11.13;;;6.93;;
49015;SDS011;34830;44.064;12.566;2023-05-31T04:27:33;13.52;;;6.40;;
49015;SDS011;34830;44.064;12.566;2023-05-31T04:30:04;11.68;;;6.05;;
49015;SDS011;34830;44.064;12.566;2023-05-31T04:32:31;14.98;;;6.38;;
49015;SDS011;34830;44.064;12.566;2023-05-31T04:35:00;18.77;;;6.55;;
49015;SDS011;34830;44.064;12.566;2023-05-31T04:37:31;15.02;;;6.25;;
49015;SDS011;34830;44.064;12.566;2023-05-31T04:40:00;11.05;;;6.20;;
49015;SDS011;34830;44.064;12.566;2023-05-31T04:42:26;16.90;;;7.25;;
49015;SDS011;34830;44.064;12.566;2023-05-31T04:44:53;13.15;;;6.30;;
49015;SDS011;34830;44.064;12.566;2023-05-31T04:47:24;9.18;;;5.88;;
49015;SDS011;34830;44.064;12.566;2023-05-31T04:49:53;10.55;;;5.93;;
49015;SDS011;34830;44.064;12.566;2023-05-31T04:52:24;10.15;;;5.60;;
49015;SDS011;34830;44.064;12.566;2023-05-31T04:54:53;13.07;;;5.85;;
49015;SDS011;34830;44.064;12.566;2023-05-31T04:57:19;14.23;;;5.97;;
49015;SDS011;34830;44.064;12.566;2023-05-31T04:59:47;11.10;;;5.60;;
49015;SDS011;34830;44.064;12.566;2023-05-31T05:02:14;10.95;;;6.28;;
49015;SDS011;34830;44.064;12.566;2023-05-31T05:04:40;14.07;;;7.10;;
49015;SDS011;34830;44.064;12.566;2023-05-31T05:07:07;15.82;;;7.53;;
49015;SDS011;34830;44.064;12.566;2023-05-31T05:09:33;9.52;;;5.53;;
49015;SDS011;34830;44.064;12.566;2023-05-31T05:11:59;14.27;;;6.18;;
49015;SDS011;34830;44.064;12.566;2023-05-31T05:14:27;12.50;;;6.10;;
49015;SDS011;34830;44.064;12.566;2023-05-31T05:16:55;18.40;;;6.13;;
49015;SDS011;34830;44.064;12.566;2023-05-31T05:19:21;13.30;;;5.88;;
49015;SDS011;34830;44.064;12.566;2023-05-31T05:21:48;13.00;;;6.43;;
49015;SDS011;34830;44.064;12.566;2023-05-31T05:24:15;12.95;;;5.40;;
49015;SDS011;34830;44.064;12.566;2023-05-31T05:26:43;10.57;;;5.68;;
49015;SDS011;34830;44.064;12.566;2023-05-31T05:29:10;16.38;;;5.93;;
49015;SDS011;34830;44.064;12.566;2023-05-31T05:31:37;12.43;;;6.60;;
49015;SDS011;34830;44.064;12.566;2023-05-31T05:34:05;15.60;;;5.32;;
49015;SDS011;34830;44.064;12.566;2023-05-31T05:36:31;13.30;;;4.82;;
49015;SDS011;34830;44.064;12.566;2023-05-31T05:38:57;10.60;;;4.70;;
49015;SDS011;34830;44.064;12.566;2023-05-31T05:41:29;12.00;;;5.57;;
49015;SDS011;34830;44.064;12.566;2023-05-31T05:43:56;9.75;;;5.38;;
49015;SDS011;34830;44.064;12.566;2023-05-31T05:46:23;10.13;;;5.95;;
49015;SDS011;34830;44.064;12.566;2023-05-31T05:48:50;11.48;;;5.65;;
49015;SDS011;34830;44.064;12.566;2023-05-31T05:51:17;18.85;;;5.72;;
49015;SDS011;34830;44.064;12.566;2023-05-31T05:53:43;9.85;;;5.63;;
49015;SDS011;34830;44.064;12.566;2023-05-31T05:56:10;14.07;;;5.97;;
49015;SDS011;34830;44.064;12.566;2023-05-31T05:58:50;8.97;;;5.43;;
49015;SDS011;34830;44.064;12.566;2023-05-31T06:01:37;10.98;;;5.47;;
49015;SDS011;34830;44.064;12.566;2023-05-31T06:04:05;12.32;;;6.45;;
49015;SDS011;34830;44.064;12.566;2023-05-31T06:06:32;11.68;;;4.90;;
49015;SDS011;34830;44.064;12.566;2023-05-31T06:08:59;16.77;;;6.10;;
49015;SDS011;34830;44.064;12.566;2023-05-31T06:11:25;16.42;;;5.78;;
49015;SDS011;34830;44.064;12.566;2023-05-31T06:13:51;16.20;;;5.45;;
49015;SDS011;34830;44.064;12.566;2023-05-31T06:16:22;10.30;;;6.00;;
49015;SDS011;34830;44.064;12.566;2023-05-31T06:18:49;13.48;;;4.93;;
49015;SDS011;34830;44.064;12.566;2023-05-31T06:21:15;12.52;;;5.50;;
49015;SDS011;34830;44.064;12.566;2023-05-31T06:23:42;13.10;;;5.28;;
49015;SDS011;34830;44.064;12.566;2023-05-31T06:26:10;7.75;;;4.28;;
49015;SDS011;34830;44.064;12.566;2023-05-31T06:28:37;11.90;;;4.57;;
49015;SDS011;34830;44.064;12.566;2023-05-31T06:31:03;11.45;;;4.45;;
49015;SDS011;34830;44.064;12.566;2023-05-31T06:33:29;13.15;;;4.43;;
49015;SDS011;34830;44.064;12.566;2023-05-31T06:35:56;14.48;;;4.90;;
49015;SDS011;34830;44.064;12.566;2023-05-31T06:38:22;9.98;;;5.25;;
49015;SDS011;34830;44.064;12.566;2023-05-31T06:40:49;7.55;;;4.40;;
49015;SDS011;34830;44.064;12.566;2023-05-31T06:43:16;10.73;;;4.30;;
49015;SDS011;34830;44.064;12.566;2023-05-31T06:46:00;7.65;;;4.32;;
49015;SDS011;34830;44.064;12.566;2023-05-31T06:48:47;7.47;;;4.15;;
49015;SDS011;34830;44.064;12.566;2023-05-31T06:51:31;8.75;;;3.67;;
49015;SDS011;34830;44.064;12.566;2023-05-31T06:54:15;6.05;;;3.63;;
49015;SDS011;34830;44.064;12.566;2023-05-31T06:56:41;6.10;;;3.85;;
49015;SDS011;34830;44.064;12.566;2023-05-31T06:59:07;8.60;;;4.10;;
49015;SDS011;34830;44.064;12.566;2023-05-31T07:01:34;10.40;;;4.43;;
49015;SDS011;34830;44.064;12.566;2023-05-31T07:04:01;5.85;;;3.50;;
49015;SDS011;34830;44.064;12.566;2023-05-31T07:06:27;7.45;;;3.75;;
49015;SDS011;34830;44.064;12.566;2023-05-31T07:08:53;8.98;;;4.78;;
49015;SDS011;34830;44.064;12.566;2023-05-31T07:11:32;8.60;;;4.07;;
49015;SDS011;34830;44.064;12.566;2023-05-31T07:13:58;7.00;;;3.90;;
49015;SDS011;34830;44.064;12.566;2023-05-31T07:16:28;9.68;;;4.20;;
49015;SDS011;34830;44.064;12.566;2023-05-31T07:18:57;11.15;;;5.18;;
49015;SDS011;34830;44.064;12.566;2023-05-31T07:21:23;6.03;;;3.70;;
49015;SDS011;34830;44.064;12.566;2023-05-31T07:23:50;7.88;;;4.25;;
49015;SDS011;34830;44.064;12.566;2023-05-31T07:26:16;7.05;;;4.40;;
49015;SDS011;34830;44.064;12.566;2023-05-31T07:28:43;6.28;;;4.03;;
49015;SDS011;34830;44.064;12.566;2023-05-31T07:31:10;12.02;;;4.70;;
49015;SDS011;34830;44.064;12.566;2023-05-31T07:33:37;6.82;;;3.92;;
49015;SDS011;34830;44.064;12.566;2023-05-31T07:36:03;8.35;;;3.58;;
49015;SDS011;34830;44.064;12.566;2023-05-31T07:38:29;8.23;;;3.60;;
49015;SDS011;34830;44.064;12.566;2023-05-31T07:40:56;85.55;;;11.32;;
49015;SDS011;34830;44.064;12.566;2023-05-31T07:43:23;31.38;;;8.55;;
49015;SDS011;34830;44.064;12.566;2023-05-31T07:45:49;9.02;;;4.15;;
49015;SDS011;34830;44.064;12.566;2023-05-31T07:48:16;7.00;;;3.75;;
49015;SDS011;34830;44.064;12.566;2023-05-31T07:50:45;8.77;;;3.85;;
49015;SDS011;34830;44.064;12.566;2023-05-31T07:53:12;8.38;;;4.05;;
49015;SDS011;34830;44.064;12.566;2023-05-31T07:55:39;6.35;;;3.83;;
49015;SDS011;34830;44.064;12.566;2023-05-31T07:58:05;5.95;;;3.72;;
49015;SDS011;34830;44.064;12.566;2023-05-31T08:00:31;7.45;;;3.58;;
49015;SDS011;34830;44.064;12.566;2023-05-31T08:02:57;9.02;;;3.42;;
49015;SDS011;34830;44.064;12.566;2023-05-31T08:05:24;6.47;;;3.67;;
49015;SDS011;34830;44.064;12.566;2023-05-31T08:07:50;7.75;;;3.60;;
49015;SDS011;34830;44.064;12.566;2023-05-31T08:10:16;8.10;;;3.67;;
49015;SDS011;34830;44.064;12.566;2023-05-31T08:12:43;8.25;;;4.47;;
49015;SDS011;34830;44.064;12.566;2023-05-31T08:15:09;10.18;;;4.75;;
49015;SDS011;34830;44.064;12.566;2023-05-31T08:17:37;6.78;;;4.82;;
49015;SDS011;34830;44.064;12.566;2023-05-31T08:20:03;11.82;;;3.58;;
49015;SDS011;34830;44.064;12.566;2023-05-31T08:22:32;9.65;;;4.30;;
49015;SDS011;34830;44.064;12.566;2023-05-31T08:24:58;6.15;;;3.55;;
49015;SDS011;34830;44.064;12.566;2023-05-31T08:27:24;6.40;;;3.60;;
49015;SDS011;34830;44.064;12.566;2023-05-31T08:29:50;5.22;;;3.03;;
49015;SDS011;34830;44.064;12.566;2023-05-31T08:32:17;7.85;;;3.67;;
49015;SDS011;34830;44.064;12.566;2023-05-31T08:34:43;5.65;;;3.63;;
49015;SDS011;34830;44.064;12.566;2023-05-31T08:37:11;5.60;;;3.95;;
49015;SDS011;34830;44.064;12.566;2023-05-31T08:39:38;6.53;;;3.63;;
49015;SDS011;34830;44.064;12.566;2023-05-31T08:42:04;6.78;;;3.88;;
49015;SDS011;34830;44.064;12.566;2023-05-31T08:49:34;8.30;;;4.32;;
49015;SDS011;34830;44.064;12.566;2023-05-31T08:52:01;6.00;;;3.40;;
49015;SDS011;34830;44.064;12.566;2023-05-31T08:54:27;5.57;;;3.42;;
49015;SDS011;34830;44.064;12.566;2023-05-31T08:56:54;8.02;;;3.78;;
49015;SDS011;34830;44.064;12.566;2023-05-31T08:59:20;8.95;;;4.13;;
49015;SDS011;34830;44.064;12.566;2023-05-31T09:01:47;5.75;;;3.83;;
49015;SDS011;34830;44.064;12.566;2023-05-31T09:04:13;7.70;;;3.88;;
49015;SDS011;34830;44.064;12.566;2023-05-31T09:06:40;8.95;;;4.03;;
49015;SDS011;34830;44.064;12.566;2023-05-31T09:09:06;6.85;;;3.95;;
49015;SDS011;34830;44.064;12.566;2023-05-31T09:11:36;16.38;;;4.85;;
49015;SDS011;34830;44.064;12.566;2023-05-31T09:14:08;7.30;;;3.72;;
49015;SDS011;34830;44.064;12.566;2023-05-31T09:16:34;7.45;;;3.92;;
49015;SDS011;34830;44.064;12.566;2023-05-31T09:19:05;10.40;;;4.70;;
49015;SDS011;34830;44.064;12.566;2023-05-31T09:21:41;8.02;;;4.00;;
49015;SDS011;34830;44.064;12.566;2023-05-31T09:24:09;5.88;;;3.58;;
49015;SDS011;34830;44.064;12.566;2023-05-31T09:26:44;10.45;;;4.82;;
49015;SDS011;34830;44.064;12.566;2023-05-31T09:29:12;7.32;;;4.35;;
49015;SDS011;34830;44.064;12.566;2023-05-31T09:31:38;9.30;;;3.78;;
49015;SDS011;34830;44.064;12.566;2023-05-31T09:34:04;9.43;;;3.78;;
49015;SDS011;34830;44.064;12.566;2023-05-31T09:36:31;9.68;;;4.18;;
49015;SDS011;34830;44.064;12.566;2023-05-31T09:39:02;8.02;;;4.22;;
49015;SDS011;34830;44.064;12.566;2023-05-31T09:41:36;7.78;;;4.65;;
49015;SDS011;34830;44.064;12.566;2023-05-31T09:44:02;10.43;;;4.85;;
49015;SDS011;34830;44.064;12.566;2023-05-31T09:46:28;7.90;;;3.90;;
49015;SDS011;34830;44.064;12.566;2023-05-31T09:49:02;6.97;;;4.38;;
49015;SDS011;34830;44.064;12.566;2023-05-31T09:51:29;7.95;;;4.25;;
49015;SDS011;34830;44.064;12.566;2023-05-31T09:54:00;10.63;;;4.00;;
49015;SDS011;34830;44.064;12.566;2023-05-31T09:56:27;8.20;;;3.80;;
49015;SDS011;34830;44.064;12.566;2023-05-31T09:58:57;8.18;;;4.40;;
49015;SDS011;34830;44.064;12.566;2023-05-31T10:01:23;8.95;;;4.15;;
49015;SDS011;34830;44.064;12.566;2023-05-31T10:03:49;7.78;;;4.07;;
49015;SDS011;34830;44.064;12.566;2023-05-31T10:06:16;7.75;;;4.00;;
49015;SDS011;34830;44.064;12.566;2023-05-31T10:08:43;5.20;;;3.58;;
49015;SDS011;34830;44.064;12.566;2023-05-31T10:11:10;8.45;;;4.65;;
49015;SDS011;34830;44.064;12.566;2023-05-31T10:13:39;9.15;;;4.05;;
49015;SDS011;34830;44.064;12.566;2023-05-31T10:16:07;6.90;;;3.55;;
49015;SDS011;34830;44.064;12.566;2023-05-31T10:18:35;8.55;;;4.60;;
49015;SDS011;34830;44.064;12.566;2023-05-31T10:23:29;5.70;;;3.50;;
49015;SDS011;34830;44.064;12.566;2023-05-31T10:25:58;7.78;;;4.75;;
49015;SDS011;34830;44.064;12.566;2023-05-31T10:28:43;7.55;;;4.07;;
49015;SDS011;34830;44.064;12.566;2023-05-31T10:31:10;7.75;;;4.00;;
49015;SDS011;34830;44.064;12.566;2023-05-31T10:33:37;6.75;;;4.00;;
49015;SDS011;34830;44.064;12.566;2023-05-31T10:36:05;6.95;;;4.00;;
49015;SDS011;34830;44.064;12.566;2023-05-31T10:38:35;7.43;;;4.05;;
49015;SDS011;34830;44.064;12.566;2023-05-31T10:41:06;6.47;;;3.50;;
49015;SDS011;34830;44.064;12.566;2023-05-31T10:43:38;7.72;;;4.65;;
49015;SDS011;34830;44.064;12.566;2023-05-31T10:46:12;10.82;;;4.63;;
49015;SDS011;34830;44.064;12.566;2023-05-31T10:49:00;9.85;;;4.15;;
49015;SDS011;34830;44.064;12.566;2023-05-31T10:51:38;8.88;;;4.53;;
49015;SDS011;34830;44.064;12.566;2023-05-31T10:54:07;6.85;;;4.22;;
49015;SDS011;34830;44.064;12.566;2023-05-31T10:56:37;7.35;;;3.72;;
49015;SDS011;34830;44.064;12.566;2023-05-31T10:59:05;7.93;;;4.03;;
49015;SDS011;34830;44.064;12.566;2023-05-31T11:01:34;12.63;;;4.40;;
49015;SDS011;34830;44.064;12.566;2023-05-31T11:04:01;6.28;;;3.83;;
49015;SDS011;34830;44.064;12.566;2023-05-31T11:06:30;10.20;;;3.65;;
49015;SDS011;34830;44.064;12.566;2023-05-31T11:14:06;6.95;;;3.70;;
49015;SDS011;34830;44.064;12.566;2023-05-31T11:19:16;7.13;;;3.97;;
49015;SDS011;34830;44.064;12.566;2023-05-31T11:24:29;6.47;;;3.47;;
49015;SDS011;34830;44.064;12.566;2023-05-31T11:26:58;11.27;;;4.32;;
49015;SDS011;34830;44.064;12.566;2023-05-31T11:32:10;6.70;;;3.85;;
49015;SDS011;34830;44.064;12.566;2023-05-31T11:34:48;8.77;;;3.53;;
49015;SDS011;34830;44.064;12.566;2023-05-31T11:37:15;9.93;;;3.65;;
49015;SDS011;34830;44.064;12.566;2023-05-31T11:39:44;6.60;;;3.90;;
49015;SDS011;34830;44.064;12.566;2023-05-31T11:42:13;9.65;;;3.65;;
49015;SDS011;34830;44.064;12.566;2023-05-31T11:44:44;8.70;;;3.80;;
49015;SDS011;34830;44.064;12.566;2023-05-31T11:47:17;14.25;;;3.88;;
49015;SDS011;34830;44.064;12.566;2023-05-31T11:49:47;8.63;;;3.83;;
49015;SDS011;34830;44.064;12.566;2023-05-31T11:52:16;10.45;;;3.75;;
49015;SDS011;34830;44.064;12.566;2023-05-31T11:54:44;7.47;;;3.72;;
49015;SDS011;34830;44.064;12.566;2023-05-31T11:57:11;7.88;;;3.00;;
49015;SDS011;34830;44.064;12.566;2023-05-31T11:59:38;6.97;;;3.53;;
49015;SDS011;34830;44.064;12.566;2023-05-31T12:02:08;6.05;;;3.22;;
49015;SDS011;34830;44.064;12.566;2023-05-31T12:04:36;7.72;;;3.20;;
49015;SDS011;34830;44.064;12.566;2023-05-31T12:07:04;5.88;;;3.20;;
49015;SDS011;34830;44.064;12.566;2023-05-31T12:09:34;8.13;;;3.83;;
49015;SDS011;34830;44.064;12.566;2023-05-31T12:12:01;7.28;;;3.40;;
49015;SDS011;34830;44.064;12.566;2023-05-31T12:14:31;8.43;;;3.40;;
49015;SDS011;34830;44.064;12.566;2023-05-31T12:17:01;7.50;;;3.10;;
49015;SDS011;34830;44.064;12.566;2023-05-31T12:19:32;6.32;;;3.28;;
49015;SDS011;34830;44.064;12.566;2023-05-31T12:21:58;6.72;;;3.15;;
49015;SDS011;34830;44.064;12.566;2023-05-31T12:24:24;6.78;;;3.25;;
49015;SDS011;34830;44.064;12.566;2023-05-31T12:26:50;6.82;;;3.13;;
49015;SDS011;34830;44.064;12.566;2023-05-31T12:29:17;9.07;;;3.20;;
49015;SDS011;34830;44.064;12.566;2023-05-31T12:31:44;7.28;;;3.30;;
49015;SDS011;34830;44.064;12.566;2023-05-31T12:34:11;5.68;;;3.15;;
49015;SDS011;34830;44.064;12.566;2023-05-31T12:39:18;7.28;;;3.55;;
49015;SDS011;34830;44.064;12.566;2023-05-31T12:41:46;6.00;;;2.83;;
49015;SDS011;34830;44.064;12.566;2023-05-31T12:44:14;5.95;;;2.95;;
49015;SDS011;34830;44.064;12.566;2023-05-31T12:46:46;6.00;;;3.42;;
49015;SDS011;34830;44.064;12.566;2023-05-31T12:51:41;8.90;;;3.22;;
49015;SDS011;34830;44.064;12.566;2023-05-31T12:54:11;6.88;;;3.60;;
49015;SDS011;34830;44.064;12.566;2023-05-31T12:56:38;5.65;;;2.80;;
49015;SDS011;34830;44.064;12.566;2023-05-31T12:59:04;10.38;;;3.63;;
49015;SDS011;34830;44.064;12.566;2023-05-31T13:01:30;6.68;;;3.03;;
49015;SDS011;34830;44.064;12.566;2023-05-31T13:03:57;8.88;;;3.67;;
49015;SDS011;34830;44.064;12.566;2023-05-31T13:06:23;7.95;;;2.58;;
49015;SDS011;34830;44.064;12.566;2023-05-31T13:08:49;8.25;;;3.38;;
49015;SDS011;34830;44.064;12.566;2023-05-31T13:11:15;7.68;;;3.20;;
49015;SDS011;34830;44.064;12.566;2023-05-31T13:13:41;8.57;;;3.30;;
49015;SDS011;34830;44.064;12.566;2023-05-31T13:16:08;7.60;;;3.42;;
49015;SDS011;34830;44.064;12.566;2023-05-31T13:18:35;6.22;;;2.97;;
49015;SDS011;34830;44.064;12.566;2023-05-31T13:21:01;7.28;;;2.75;;
49015;SDS011;34830;44.064;12.566;2023-05-31T13:23:27;7.38;;;3.67;;
49015;SDS011;34830;44.064;12.566;2023-05-31T13:25:53;5.82;;;3.40;;
49015;SDS011;34830;44.064;12.566;2023-05-31T13:28:19;7.70;;;3.30;;
49015;SDS011;34830;44.064;12.566;2023-05-31T13:30:48;6.35;;;2.88;;
49015;SDS011;34830;44.064;12.566;2023-05-31T13:33:14;7.03;;;2.80;;
49015;SDS011;34830;44.064;12.566;2023-05-31T13:35:40;4.35;;;2.60;;
49015;SDS011;34830;44.064;12.566;2023-05-31T13:38:06;5.50;;;3.00;;
49015;SDS011;34830;44.064;12.566;2023-05-31T13:40:32;6.80;;;3.15;;
49015;SDS011;34830;44.064;12.566;2023-05-31T13:42:59;7.70;;;2.67;;
49015;SDS011;34830;44.064;12.566;2023-05-31T13:45:30;6.10;;;2.80;;
49015;SDS011;34830;44.064;12.566;2023-05-31T13:47:56;6.60;;;3.35;;
49015;SDS011;34830;44.064;12.566;2023-05-31T13:50:22;7.57;;;2.63;;
49015;SDS011;34830;44.064;12.566;2023-05-31T13:52:49;5.68;;;2.53;;
49015;SDS011;34830;44.064;12.566;2023-05-31T13:55:15;7.10;;;3.10;;
49015;SDS011;34830;44.064;12.566;2023-05-31T13:57:41;8.32;;;3.13;;
49015;SDS011;34830;44.064;12.566;2023-05-31T14:00:07;8.30;;;3.42;;
49015;SDS011;34830;44.064;12.566;2023-05-31T14:02:36;6.22;;;2.90;;
49015;SDS011;34830;44.064;12.566;2023-05-31T14:05:06;4.72;;;2.22;;
49015;SDS011;34830;44.064;12.566;2023-05-31T14:07:32;9.20;;;2.78;;
49015;SDS011;34830;44.064;12.566;2023-05-31T14:09:58;9.93;;;3.83;;
49015;SDS011;34830;44.064;12.566;2023-05-31T14:12:24;5.10;;;2.60;;
49015;SDS011;34830;44.064;12.566;2023-05-31T14:14:50;8.95;;;2.45;;
49015;SDS011;34830;44.064;12.566;2023-05-31T14:17:16;5.63;;;2.28;;
49015;SDS011;34830;44.064;12.566;2023-05-31T14:19:42;4.57;;;2.45;;
49015;SDS011;34830;44.064;12.566;2023-05-31T14:22:09;5.63;;;2.58;;
49015;SDS011;34830;44.064;12.566;2023-05-31T14:24:35;5.88;;;2.35;;
49015;SDS011;34830;44.064;12.566;2023-05-31T14:27:01;6.57;;;2.58;;
49015;SDS011;34830;44.064;12.566;2023-05-31T14:29:27;7.22;;;2.80;;
49015;SDS011;34830;44.064;12.566;2023-05-31T14:31:54;5.85;;;2.30;;
49015;SDS011;34830;44.064;12.566;2023-05-31T14:34:20;7.40;;;2.60;;
49015;SDS011;34830;44.064;12.566;2023-05-31T14:36:46;5.75;;;2.58;;
49015;SDS011;34830;44.064;12.566;2023-05-31T14:39:12;6.10;;;3.10;;
49015;SDS011;34830;44.064;12.566;2023-05-31T14:41:38;7.32;;;2.83;;
49015;SDS011;34830;44.064;12.566;2023-05-31T14:44:04;6.22;;;2.58;;
49015;SDS011;34830;44.064;12.566;2023-05-31T14:46:31;7.93;;;2.75;;
49015;SDS011;34830;44.064;12.566;2023-05-31T14:48:57;9.20;;;3.03;;
49015;SDS011;34830;44.064;12.566;2023-05-31T14:51:23;4.93;;;2.60;;
49015;SDS011;34830;44.064;12.566;2023-05-31T14:53:49;5.47;;;2.30;;
49015;SDS011;34830;44.064;12.566;2023-05-31T14:56:15;4.10;;;2.50;;
49015;SDS011;34830;44.064;12.566;2023-05-31T14:58:42;5.18;;;2.28;;
49015;SDS011;34830;44.064;12.566;2023-05-31T15:01:11;6.53;;;3.05;;
49015;SDS011;34830;44.064;12.566;2023-05-31T15:03:38;5.10;;;2.50;;
49015;SDS011;34830;44.064;12.566;2023-05-31T15:06:04;5.82;;;2.75;;
49015;SDS011;34830;44.064;12.566;2023-05-31T15:08:30;5.78;;;2.75;;
49015;SDS011;34830;44.064;12.566;2023-05-31T15:10:56;4.60;;;2.70;;
49015;SDS011;34830;44.064;12.566;2023-05-31T15:13:22;4.68;;;2.70;;